Flight Track Log - Related Links

Times and Time Zones

All times are in EDT time to prevent confusion due to time zone crossing. See the FDX1958 flight status page for this flight to view local times or setup timezone preferences in your user account.

Time Position Orientation Groundspeed Altitude Reporting Facility
EDT Latitude Longitude Course Direction KTS MPH feet Rate Location/Type
Wed 04:27:11 AM 40.6804 -74.1759 197° South 140 161 300  Level FlightAware ADS-B
Wed 04:27:22 AM 40.6731 -74.1798 202° Southwest 153 176 1,000 3,158 Climbing FlightAware ADS-B
Wed 04:27:30 AM 40.6678 -74.1811 191° South 158 182 1,300 1,500 Climbing FlightAware ADS-B
Wed 04:27:34 AM 40.6644 -74.1812 181° South 171 197 1,300 1,000 Level FlightAware ADS-B
Wed 04:27:42 AM 40.6575 -74.1802 174° South 188 216 1,500 1,333 Climbing FlightAware ADS-B
Wed 04:27:52 AM 40.6481 -74.1781 170° South 206 237 1,700 1,600 Climbing FlightAware ADS-B
Wed 04:27:57 AM 40.6436 -74.1777 176° South 208 239 1,900 2,100 Climbing FlightAware ADS-B
Wed 04:28:12 AM 40.6290 -74.1807 189° South 209 241 2,400 1,800 Climbing FlightAware ADS-B
Wed 04:28:17 AM 40.6234 -74.1841 205° Southwest 230 265 2,500 1,200 Climbing FlightAware ADS-B
Wed 04:28:22 AM 40.6195 -74.1871 210° Southwest 236 272 2,600 1,333 Climbing FlightAware ADS-B
Wed 04:28:26 AM 40.6156 -74.1915 221° Southwest 243 280 2,700 667 Climbing FlightAware ADS-B
Wed 04:28:31 AM 40.6115 -74.1969 225° Southwest 247 284 2,700  Level FlightAware ADS-B
Wed 04:28:36 AM 40.6086 -74.2016 231° Southwest 247 284 2,700  Level FlightAware ADS-B
Wed 04:28:38 AM 40.6073 -74.2054 246° West 246 283 2,700  Level FlightAware ADS-B
Wed 04:28:41 AM 40.6057 -74.2094 242° Southwest 246 283 2,700  Level FlightAware ADS-B
Wed 04:28:46 AM 40.6040 -74.2164 252° West 244 281 2,700  Level FlightAware ADS-B
Wed 04:28:55 AM 40.6035 -74.2295 267° West 242 278 2,700 -375 Level FlightAware ADS-B
Wed 04:29:02 AM 40.6055 -74.2396 285° West 246 283 2,600 -400 Descending FlightAware ADS-B
Wed 04:29:10 AM 40.6104 -74.2501 302° West 251 289 2,600 600 Level FlightAware ADS-B
Wed 04:29:12 AM 40.6125 -74.2524 320° Northwest 247 284 2,700 1,500 Climbing FlightAware ADS-B
Wed 04:29:14 AM 40.6139 -74.2546 310° West 262 302 2,700 2,000 Level FlightAware ADS-B
Wed 04:29:15 AM 40.6154 -74.2557 331° Northwest 263 303 2,800 4,286 Climbing FlightAware ADS-B
Wed 04:29:21 AM 40.6218 -74.2610 328° Northwest 269 310 3,200 4,000 Climbing FlightAware ADS-B
Wed 04:29:27 AM 40.6279 -74.2655 331° Northwest 265 305 3,600 3,750 Climbing FlightAware ADS-B
Wed 04:29:37 AM 40.6387 -74.2721 335° Northwest 268 308 4,200 3,500 Climbing FlightAware ADS-B
Wed 04:29:39 AM 40.6415 -74.2743 329° Northwest 267 307 4,300 2,250 Climbing FlightAware ADS-B
Wed 04:29:45 AM 40.6484 -74.2785 335° Northwest 277 319 4,500 3,200 Climbing FlightAware ADS-B
Wed 04:29:54 AM 40.6594 -74.2844 338° Northwest 267 307 5,100 3,500 Climbing FlightAware ADS-B
Wed 04:29:57 AM 40.6629 -74.2862 339° North 280 322 5,200 2,400 Climbing FlightAware ADS-B
Wed 04:29:59 AM 40.6647 -74.2869 344° North 280 322 5,300 3,600 Climbing FlightAware ADS-B
Wed 04:30:12 AM 40.6815 -74.2951 340° North 280 322 6,100 3,429 Climbing FlightAware ADS-B
Wed 04:30:27 AM 40.7000 -74.3043 339° North 285 328 6,900 3,097 Climbing FlightAware ADS-B
Wed 04:30:43 AM 40.7186 -74.3140 338° Northwest 285 328 7,700 3,158 Climbing FlightAware ADS-B
Wed 04:30:46 AM 40.7228 -74.3165 336° Northwest 285 328 7,900 2,400 Climbing FlightAware ADS-B
Wed 04:30:58 AM 40.7377 -74.3243 338° Northwest 295 339 8,300 2,667 Climbing FlightAware ADS-B
Wed 04:31:13 AM 40.7574 -74.3343 339° North 296 341 9,100 3,000 Climbing FlightAware ADS-B
Wed 04:31:28 AM 40.7768 -74.3444 338° Northwest 301 346 9,800 2,077 Climbing FlightAware ADS-B
Wed 04:31:39 AM 40.7908 -74.3523 337° Northwest 287 330 10,000 800 Climbing FlightAware ADS-B
Wed 04:31:43 AM 40.7974 -74.3553 341° North 325 374 10,000 343 Level FlightAware ADS-B
Wed 04:32:14 AM 40.8439 -74.3802 338° Northwest 375 432 10,200 1,143 Climbing FlightAware ADS-B
Wed 04:32:46 AM 40.8968 -74.4073 339° North 393 452 11,200 2,308 Climbing FlightAware ADS-B
Wed 04:33:06 AM 40.9304 -74.4272 336° Northwest 392 451 12,200 2,341 Climbing FlightAware ADS-B
Wed 04:33:27 AM 40.9647 -74.4490 334° Northwest 401 461 12,800 2,118 Climbing FlightAware ADS-B
Wed 04:33:57 AM 41.0134 -74.4873 329° Northwest 405 466 14,000 2,300 Climbing FlightAware ADS-B
Wed 04:34:27 AM 41.0628 -74.5258 330° Northwest 412 474 15,100 2,164 Climbing FlightAware ADS-B
Wed 04:34:58 AM 41.1129 -74.5645 330° Northwest 417 480 16,200 2,951 Climbing FlightAware ADS-B
Wed 04:35:28 AM 41.1619 -74.6018 330° Northwest 397 457 18,100 2,900 Climbing FlightAware ADS-B
Wed 04:35:58 AM 41.2107 -74.6400 330° Northwest 404 465 19,100 1,967 Climbing FlightAware ADS-B
Wed 04:36:29 AM 41.2603 -74.6777 330° Northwest 410 472 20,100 1,967 Climbing FlightAware ADS-B
Wed 04:36:59 AM 41.3099 -74.7170 329° Northwest 411 473 21,100 1,400 Climbing FlightAware ADS-B
Wed 04:37:29 AM 41.3607 -74.7564 330° Northwest 430 495 21,500 800 Climbing FlightAware ADS-B
Wed 04:37:59 AM 41.4137 -74.7975 330° Northwest 449 517 21,900 492 Climbing FlightAware ADS-B
Wed 04:38:30 AM 41.4691 -74.8401 330° Northwest 459 528 22,000 98 Climbing FlightAware ADS-B
Wed 04:39:00 AM 41.5245 -74.8832 330° Northwest 461 531 22,000  Level FlightAware ADS-B
Wed 04:39:30 AM 41.5810 -74.9279 329° Northwest 463 533 22,000  Level FlightAware ADS-B
Wed 04:40:02 AM 41.6395 -74.9741 329° Northwest 459 528 22,000  Level FlightAware ADS-B
Wed 04:41:02 AM 41.7490 -75.0600 330° Northwest 457 526 22,000  Level FlightAware ADS-B
Wed 04:41:34 AM 41.8050 -75.1050 329° Northwest 457 526 22,000  Level FlightAware ADS-B
Wed 04:42:18 AM 41.8850 -75.1670 330° Northwest 453 521 22,000  Level FlightAware ADS-B
Wed 04:42:59 AM 41.9580 -75.2260 329° Northwest 453 521 22,000  Level FlightAware ADS-B
Wed 04:43:36 AM 42.0310 -75.2840 329° Northwest 459 528 22,000  Level FlightAware ADS-B
Wed 04:44:16 AM 42.1030 -75.3410 330° Northwest 457 526 22,000 -1,071 Level FlightAware ADS-B
Wed 04:45:00 AM 42.1830 -75.4060 329° Northwest 450 518 20,500 -2,308 Descending FlightAware ADS-B
Wed 04:45:34 AM 42.2430 -75.4530 330° Northwest 446 513 19,000 -2,447 Descending FlightAware ADS-B
Wed 04:46:16 AM 42.3150 -75.5120 329° Northwest 427 491 17,400 -1,462 Descending FlightAware ADS-B
Wed 04:46:52 AM 42.3680 -75.5550 329° Northwest 425 489 17,100 -212 Descending FlightAware ADS-B
Wed 04:47:41 AM 42.4380 -75.6120 329° Northwest 425 489 17,100  Level FlightAware ADS-B
Wed 04:48:16 AM 42.4880 -75.6530 329° Northwest 425 489 17,100 -4,447 Level FlightAware ADS-B
Wed 04:49:06 AM 42.5880 -75.7330 330° Northwest 383 441 10,800 -4,636 Descending FlightAware ADS-B
Wed 04:49:44 AM 42.6470 -75.7810 329° Northwest 375 432 10,300 -794 Descending FlightAware ADS-B
Wed 04:50:14 AM 42.6920 -75.8110 334° Northwest 337 388 9,900 -340 Descending FlightAware ADS-B
Wed 04:50:37 AM 42.7210 -75.8270 338° Northwest 291 335 10,000 -875 Climbing FlightAware ADS-B
Wed 04:51:02 AM 42.7530 -75.8420 341° North 276 318 9,200 -2,377 Descending FlightAware ADS-B
Wed 04:51:30 AM 42.7870 -75.8570 342° North 278 320 7,900 -2,571 Descending FlightAware ADS-B
Wed 04:51:58 AM 42.8200 -75.8730 340° North 275 316 6,800 -2,464 Descending FlightAware ADS-B
Wed 04:52:26 AM 42.8550 -75.8890 341° North 277 319 5,600 -2,591 Descending FlightAware ADS-B
Wed 04:52:42 AM 42.8750 -75.8980 342° North 277 319 4,900 -2,045 Descending FlightAware ADS-B
Wed 04:53:10 AM 42.9090 -75.9140 341° North 273 314 4,100 -1,429 Descending FlightAware ADS-B
Wed 04:53:24 AM 42.9240 -75.9210 341° North 270 311 3,900 -1,000 Descending FlightAware ADS-B
Wed 04:53:52 AM 42.9570 -75.9370 340° North 253 291 3,400 -692 Descending FlightAware ADS-B
Wed 04:54:16 AM 42.9830 -75.9490 341° North 232 267 3,300 -231 Descending FlightAware ADS-B
Wed 04:54:44 AM 43.0080 -75.9610 341° North 197 227 3,200 -581 Descending FlightAware ADS-B
Wed 04:55:18 AM 43.0350 -75.9730 342° North 176 203 2,700 -889 Descending FlightAware ADS-B
Wed 04:55:38 AM 43.0520 -75.9750 355° North 169 194 2,400 -1,000 Descending FlightAware ADS-B
Wed 04:55:48 AM 43.0600 -75.9760 355° North 170 196 2,200 -947 Descending FlightAware ADS-B
Wed 04:56:16 AM 43.0830 -75.9780 356° North 178 205 1,800 -842 Descending FlightAware ADS-B
Wed 04:56:45 AM 43.1030 -75.9870 342° North 167 192 1,400 -545 Descending FlightAware ADS-B
Wed 04:57:00 AM 43.1110 -75.9990 312° West 164 189 1,400  Level FlightAware ADS-B
Wed 04:57:08 AM 43.1130 -76.0070 289° West 150 173 1,400 -500 Level FlightAware ADS-B
Wed 04:57:36 AM 43.1110 -76.0300 263° West 128 147 1,100 -556 Descending FlightAware ADS-B
Wed 04:58:02 AM 43.1110 -76.0520 270° West 128 147 900 -643 Descending FlightAware ADS-B
Wed 04:58:32 AM 43.1100 -76.0760 267° West 134 154 500 -462 Descending FlightAware ADS-B
Wed 04:59:07 AM 43.1090 -76.1030 267° West 136 157 400 -83 Descending FlightAware ADS-B
Wed 04:59:44 AM 43.1078 -76.1233 267° West 122 140 400  Level Boston Center
Wed 05:01:00 AM 43.1112 -76.1063 124° Southeast  Level Estimated
Wed 05:08:00 AM 43.1112 -76.1063 124° Southeast  Level Estimated
Wed 05:09:00 AM 43.1112 -76.1063 124° Southeast  Level Estimated
Wed 05:10:00 AM 43.1112 -76.1063 124° Southeast  Level Estimated
Wed 05:11:00 AM 43.1112 -76.1063 124° Southeast  Level Estimated
Wed 05:12:00 AM 43.1112 -76.1063 124° Southeast  Level Estimated
Wed 05:13:00 AM 43.1112 -76.1063 124° Southeast  Level Estimated

Login

Don't have an account? Register now (free) for customized features, flight alerts, and more!